sensor_id;sensor_type;location;lat;lon;timestamp;P1;durP1;ratioP1;P2;durP2;ratioP2
86137;SDS011;76796;49.056;15.810;2024-03-07T00:00:58;18.75;;;11.40;;
86137;SDS011;76796;49.056;15.810;2024-03-07T00:03:25;21.48;;;11.40;;
86137;SDS011;76796;49.056;15.810;2024-03-07T00:05:51;17.38;;;10.32;;
86137;SDS011;76796;49.056;15.810;2024-03-07T00:08:16;20.80;;;10.93;;
86137;SDS011;76796;49.056;15.810;2024-03-07T00:10:42;23.50;;;12.75;;
86137;SDS011;76796;49.056;15.810;2024-03-07T00:13:14;18.83;;;10.98;;
86137;SDS011;76796;49.056;15.810;2024-03-07T00:15:40;19.40;;;11.80;;
86137;SDS011;76796;49.056;15.810;2024-03-07T00:18:12;19.27;;;11.43;;
86137;SDS011;76796;49.056;15.810;2024-03-07T00:20:40;20.95;;;13.00;;
86137;SDS011;76796;49.056;15.810;2024-03-07T00:23:05;22.20;;;11.40;;
86137;SDS011;76796;49.056;15.810;2024-03-07T00:25:31;20.45;;;11.27;;
86137;SDS011;76796;49.056;15.810;2024-03-07T00:27:57;22.38;;;12.25;;
86137;SDS011;76796;49.056;15.810;2024-03-07T00:30:28;20.48;;;11.70;;
86137;SDS011;76796;49.056;15.810;2024-03-07T00:32:55;23.67;;;12.38;;
86137;SDS011;76796;49.056;15.810;2024-03-07T00:35:28;25.38;;;13.57;;
86137;SDS011;76796;49.056;15.810;2024-03-07T00:37:54;25.13;;;13.15;;
86137;SDS011;76796;49.056;15.810;2024-03-07T00:40:19;24.38;;;14.38;;
86137;SDS011;76796;49.056;15.810;2024-03-07T00:42:45;24.42;;;14.02;;
86137;SDS011;76796;49.056;15.810;2024-03-07T00:45:11;27.73;;;14.27;;
86137;SDS011;76796;49.056;15.810;2024-03-07T00:47:36;27.58;;;15.00;;
86137;SDS011;76796;49.056;15.810;2024-03-07T00:50:03;25.23;;;14.13;;
86137;SDS011;76796;49.056;15.810;2024-03-07T00:52:36;26.38;;;14.52;;
86137;SDS011;76796;49.056;15.810;2024-03-07T00:55:02;26.55;;;15.50;;
86137;SDS011;76796;49.056;15.810;2024-03-07T00:57:30;28.05;;;16.00;;
86137;SDS011;76796;49.056;15.810;2024-03-07T00:59:55;28.13;;;15.35;;
86137;SDS011;76796;49.056;15.810;2024-03-07T01:02:21;35.03;;;18.55;;
86137;SDS011;76796;49.056;15.810;2024-03-07T01:04:47;31.92;;;18.02;;
86137;SDS011;76796;49.056;15.810;2024-03-07T01:07:13;37.97;;;19.20;;
86137;SDS011;76796;49.056;15.810;2024-03-07T01:09:52;36.15;;;18.20;;
86137;SDS011;76796;49.056;15.810;2024-03-07T01:12:29;35.80;;;19.58;;
86137;SDS011;76796;49.056;15.810;2024-03-07T01:14:56;35.30;;;18.58;;
86137;SDS011;76796;49.056;15.810;2024-03-07T01:17:22;34.17;;;19.05;;
86137;SDS011;76796;49.056;15.810;2024-03-07T01:19:49;31.65;;;17.73;;
86137;SDS011;76796;49.056;15.810;2024-03-07T01:22:14;35.42;;;18.50;;
86137;SDS011;76796;49.056;15.810;2024-03-07T01:24:40;31.63;;;17.50;;
86137;SDS011;76796;49.056;15.810;2024-03-07T01:27:12;34.45;;;17.92;;
86137;SDS011;76796;49.056;15.810;2024-03-07T01:29:38;32.20;;;17.88;;
86137;SDS011;76796;49.056;15.810;2024-03-07T01:32:06;36.20;;;18.23;;
86137;SDS011;76796;49.056;15.810;2024-03-07T01:34:32;31.70;;;18.13;;
86137;SDS011;76796;49.056;15.810;2024-03-07T01:36:58;28.38;;;15.55;;
86137;SDS011;76796;49.056;15.810;2024-03-07T01:39:23;35.45;;;19.30;;
86137;SDS011;76796;49.056;15.810;2024-03-07T01:41:49;31.13;;;17.08;;
86137;SDS011;76796;49.056;15.810;2024-03-07T01:44:21;30.45;;;17.33;;
86137;SDS011;76796;49.056;15.810;2024-03-07T01:46:47;30.63;;;17.17;;
86137;SDS011;76796;49.056;15.810;2024-03-07T01:49:15;33.58;;;17.42;;
86137;SDS011;76796;49.056;15.810;2024-03-07T01:51:41;31.10;;;16.70;;
86137;SDS011;76796;49.056;15.810;2024-03-07T01:54:07;28.50;;;15.35;;
86137;SDS011;76796;49.056;15.810;2024-03-07T01:56:34;32.28;;;16.25;;
86137;SDS011;76796;49.056;15.810;2024-03-07T01:59:01;30.33;;;15.23;;
86137;SDS011;76796;49.056;15.810;2024-03-07T02:01:36;27.88;;;14.57;;
86137;SDS011;76796;49.056;15.810;2024-03-07T02:04:03;29.02;;;15.07;;
86137;SDS011;76796;49.056;15.810;2024-03-07T02:06:31;28.83;;;15.15;;
86137;SDS011;76796;49.056;15.810;2024-03-07T02:09:15;27.42;;;15.75;;
86137;SDS011;76796;49.056;15.810;2024-03-07T02:11:54;25.23;;;14.02;;
86137;SDS011;76796;49.056;15.810;2024-03-07T02:14:21;23.67;;;14.52;;
86137;SDS011;76796;49.056;15.810;2024-03-07T02:16:54;29.48;;;14.65;;
86137;SDS011;76796;49.056;15.810;2024-03-07T02:19:21;27.15;;;15.00;;
86137;SDS011;76796;49.056;15.810;2024-03-07T02:21:47;29.25;;;15.50;;
86137;SDS011;76796;49.056;15.810;2024-03-07T02:24:13;27.88;;;14.82;;
86137;SDS011;76796;49.056;15.810;2024-03-07T02:26:40;25.17;;;14.70;;
86137;SDS011;76796;49.056;15.810;2024-03-07T02:29:06;25.83;;;15.35;;
86137;SDS011;76796;49.056;15.810;2024-03-07T02:31:31;28.33;;;14.63;;
86137;SDS011;76796;49.056;15.810;2024-03-07T02:34:13;25.27;;;15.00;;
86137;SDS011;76796;49.056;15.810;2024-03-07T02:36:38;29.05;;;15.25;;
86137;SDS011;76796;49.056;15.810;2024-03-07T02:39:04;26.52;;;13.38;;
86137;SDS011;76796;49.056;15.810;2024-03-07T02:41:30;23.48;;;13.57;;
86137;SDS011;76796;49.056;15.810;2024-03-07T02:43:55;28.67;;;14.93;;
86137;SDS011;76796;49.056;15.810;2024-03-07T02:46:21;25.75;;;13.95;;
86137;SDS011;76796;49.056;15.810;2024-03-07T02:48:47;26.30;;;14.68;;
86137;SDS011;76796;49.056;15.810;2024-03-07T02:51:18;25.70;;;14.30;;
86137;SDS011;76796;49.056;15.810;2024-03-07T02:53:44;23.95;;;13.05;;
86137;SDS011;76796;49.056;15.810;2024-03-07T02:56:10;27.85;;;14.70;;
86137;SDS011;76796;49.056;15.810;2024-03-07T02:58:36;24.98;;;13.38;;
86137;SDS011;76796;49.056;15.810;2024-03-07T03:01:02;25.77;;;14.52;;
86137;SDS011;76796;49.056;15.810;2024-03-07T03:03:30;24.17;;;13.07;;
86137;SDS011;76796;49.056;15.810;2024-03-07T03:05:59;24.52;;;13.50;;
86137;SDS011;76796;49.056;15.810;2024-03-07T03:08:32;23.85;;;13.10;;
86137;SDS011;76796;49.056;15.810;2024-03-07T03:11:10;23.27;;;13.10;;
86137;SDS011;76796;49.056;15.810;2024-03-07T03:13:42;21.77;;;13.05;;
86137;SDS011;76796;49.056;15.810;2024-03-07T03:16:08;24.13;;;12.98;;
86137;SDS011;76796;49.056;15.810;2024-03-07T03:18:35;22.05;;;13.88;;
86137;SDS011;76796;49.056;15.810;2024-03-07T03:21:01;20.70;;;11.77;;
86137;SDS011;76796;49.056;15.810;2024-03-07T03:23:28;20.80;;;12.38;;
86137;SDS011;76796;49.056;15.810;2024-03-07T03:26:00;20.92;;;10.90;;
86137;SDS011;76796;49.056;15.810;2024-03-07T03:28:29;23.10;;;12.18;;
86137;SDS011;76796;49.056;15.810;2024-03-07T03:30:54;19.33;;;11.57;;
86137;SDS011;76796;49.056;15.810;2024-03-07T03:33:20;20.35;;;11.68;;
86137;SDS011;76796;49.056;15.810;2024-03-07T03:35:46;18.35;;;10.52;;
86137;SDS011;76796;49.056;15.810;2024-03-07T03:38:11;15.82;;;9.60;;
86137;SDS011;76796;49.056;15.810;2024-03-07T03:40:37;16.45;;;10.02;;
86137;SDS011;76796;49.056;15.810;2024-03-07T03:43:10;17.52;;;9.57;;
86137;SDS011;76796;49.056;15.810;2024-03-07T03:45:35;17.48;;;9.80;;
86137;SDS011;76796;49.056;15.810;2024-03-07T03:48:01;15.95;;;9.32;;
86137;SDS011;76796;49.056;15.810;2024-03-07T03:50:27;18.65;;;10.25;;
86137;SDS011;76796;49.056;15.810;2024-03-07T03:52:53;16.98;;;10.35;;
86137;SDS011;76796;49.056;15.810;2024-03-07T03:55:20;20.83;;;11.63;;
86137;SDS011;76796;49.056;15.810;2024-03-07T03:57:47;19.25;;;11.27;;
86137;SDS011;76796;49.056;15.810;2024-03-07T04:00:20;19.85;;;10.70;;
86137;SDS011;76796;49.056;15.810;2024-03-07T04:02:48;19.42;;;11.52;;
86137;SDS011;76796;49.056;15.810;2024-03-07T04:05:14;17.67;;;10.80;;
86137;SDS011;76796;49.056;15.810;2024-03-07T04:07:41;18.73;;;11.38;;
86137;SDS011;76796;49.056;15.810;2024-03-07T04:10:08;18.60;;;10.65;;
86137;SDS011;76796;49.056;15.810;2024-03-07T04:12:41;18.48;;;10.10;;
86137;SDS011;76796;49.056;15.810;2024-03-07T04:15:07;18.80;;;10.10;;
86137;SDS011;76796;49.056;15.810;2024-03-07T04:17:41;20.58;;;11.90;;
86137;SDS011;76796;49.056;15.810;2024-03-07T04:20:06;22.00;;;11.60;;
86137;SDS011;76796;49.056;15.810;2024-03-07T04:22:33;20.05;;;10.55;;
86137;SDS011;76796;49.056;15.810;2024-03-07T04:24:59;17.73;;;10.60;;
86137;SDS011;76796;49.056;15.810;2024-03-07T04:27:28;17.30;;;10.23;;
86137;SDS011;76796;49.056;15.810;2024-03-07T04:29:54;19.42;;;11.10;;
86137;SDS011;76796;49.056;15.810;2024-03-07T04:32:20;18.05;;;10.60;;
86137;SDS011;76796;49.056;15.810;2024-03-07T04:34:53;19.73;;;10.90;;
86137;SDS011;76796;49.056;15.810;2024-03-07T04:37:18;18.33;;;11.10;;
86137;SDS011;76796;49.056;15.810;2024-03-07T04:39:44;20.35;;;11.50;;
86137;SDS011;76796;49.056;15.810;2024-03-07T04:42:09;19.65;;;11.70;;
86137;SDS011;76796;49.056;15.810;2024-03-07T04:44:35;21.60;;;11.38;;
86137;SDS011;76796;49.056;15.810;2024-03-07T04:47:02;20.60;;;11.43;;
86137;SDS011;76796;49.056;15.810;2024-03-07T04:49:30;19.52;;;10.82;;
86137;SDS011;76796;49.056;15.810;2024-03-07T04:52:03;17.58;;;10.70;;
86137;SDS011;76796;49.056;15.810;2024-03-07T04:54:29;18.40;;;11.27;;
86137;SDS011;76796;49.056;15.810;2024-03-07T04:56:56;21.30;;;11.90;;
86137;SDS011;76796;49.056;15.810;2024-03-07T04:59:22;20.00;;;12.40;;
86137;SDS011;76796;49.056;15.810;2024-03-07T05:01:55;19.08;;;12.45;;
86137;SDS011;76796;49.056;15.810;2024-03-07T05:04:21;17.90;;;10.75;;
86137;SDS011;76796;49.056;15.810;2024-03-07T05:06:48;17.52;;;10.98;;
86137;SDS011;76796;49.056;15.810;2024-03-07T05:09:27;19.63;;;10.73;;
86137;SDS011;76796;49.056;15.810;2024-03-07T05:12:07;18.13;;;10.75;;
86137;SDS011;76796;49.056;15.810;2024-03-07T05:14:33;17.73;;;11.48;;
86137;SDS011;76796;49.056;15.810;2024-03-07T05:16:58;20.15;;;12.07;;
86137;SDS011;76796;49.056;15.810;2024-03-07T05:19:35;18.00;;;10.57;;
86137;SDS011;76796;49.056;15.810;2024-03-07T05:22:01;20.02;;;11.32;;
86137;SDS011;76796;49.056;15.810;2024-03-07T05:24:37;18.05;;;11.25;;
86137;SDS011;76796;49.056;15.810;2024-03-07T05:27:03;20.95;;;11.70;;
86137;SDS011;76796;49.056;15.810;2024-03-07T05:29:28;17.42;;;10.57;;
86137;SDS011;76796;49.056;15.810;2024-03-07T05:31:54;19.42;;;11.73;;
86137;SDS011;76796;49.056;15.810;2024-03-07T05:34:19;18.77;;;12.10;;
86137;SDS011;76796;49.056;15.810;2024-03-07T05:36:45;19.65;;;11.00;;
86137;SDS011;76796;49.056;15.810;2024-03-07T05:39:15;17.85;;;10.00;;
86137;SDS011;76796;49.056;15.810;2024-03-07T05:41:49;19.98;;;10.55;;
86137;SDS011;76796;49.056;15.810;2024-03-07T05:44:15;19.33;;;10.18;;
86137;SDS011;76796;49.056;15.810;2024-03-07T05:46:41;19.85;;;10.85;;
86137;SDS011;76796;49.056;15.810;2024-03-07T05:49:14;18.95;;;9.85;;
86137;SDS011;76796;49.056;15.810;2024-03-07T05:51:40;17.67;;;10.10;;
86137;SDS011;76796;49.056;15.810;2024-03-07T05:54:13;21.38;;;10.20;;
86137;SDS011;76796;49.056;15.810;2024-03-07T05:56:42;21.17;;;10.93;;
86137;SDS011;76796;49.056;15.810;2024-03-07T05:59:14;21.20;;;10.32;;
86137;SDS011;76796;49.056;15.810;2024-03-07T06:01:39;17.35;;;9.77;;
86137;SDS011;76796;49.056;15.810;2024-03-07T06:04:06;20.40;;;10.27;;
86137;SDS011;76796;49.056;15.810;2024-03-07T06:06:32;18.70;;;10.02;;
86137;SDS011;76796;49.056;15.810;2024-03-07T06:09:08;22.60;;;11.40;;
86137;SDS011;76796;49.056;15.810;2024-03-07T06:11:41;22.98;;;10.80;;
86137;SDS011;76796;49.056;15.810;2024-03-07T06:14:07;20.48;;;9.77;;
86137;SDS011;76796;49.056;15.810;2024-03-07T06:16:40;22.65;;;10.93;;
86137;SDS011;76796;49.056;15.810;2024-03-07T06:19:06;18.80;;;11.00;;
86137;SDS011;76796;49.056;15.810;2024-03-07T06:21:33;20.08;;;10.55;;
86137;SDS011;76796;49.056;15.810;2024-03-07T06:24:00;19.23;;;10.85;;
86137;SDS011;76796;49.056;15.810;2024-03-07T06:26:27;19.80;;;10.50;;
86137;SDS011;76796;49.056;15.810;2024-03-07T06:29:10;18.85;;;10.43;;
86137;SDS011;76796;49.056;15.810;2024-03-07T06:31:37;17.83;;;10.00;;
86137;SDS011;76796;49.056;15.810;2024-03-07T06:34:09;16.77;;;9.20;;
86137;SDS011;76796;49.056;15.810;2024-03-07T06:36:35;19.45;;;10.02;;
86137;SDS011;76796;49.056;15.810;2024-03-07T06:39:01;20.25;;;9.77;;
86137;SDS011;76796;49.056;15.810;2024-03-07T06:41:29;19.33;;;9.75;;
86137;SDS011;76796;49.056;15.810;2024-03-07T06:43:54;20.45;;;9.75;;
86137;SDS011;76796;49.056;15.810;2024-03-07T06:46:21;18.15;;;9.73;;
86137;SDS011;76796;49.056;15.810;2024-03-07T06:48:46;20.25;;;9.73;;
86137;SDS011;76796;49.056;15.810;2024-03-07T06:51:19;18.05;;;9.27;;
86137;SDS011;76796;49.056;15.810;2024-03-07T06:53:45;16.63;;;9.27;;
86137;SDS011;76796;49.056;15.810;2024-03-07T06:56:14;18.33;;;9.27;;
86137;SDS011;76796;49.056;15.810;2024-03-07T06:58:41;17.38;;;9.60;;
86137;SDS011;76796;49.056;15.810;2024-03-07T07:01:07;20.25;;;10.20;;
86137;SDS011;76796;49.056;15.810;2024-03-07T07:03:38;20.67;;;9.50;;
86137;SDS011;76796;49.056;15.810;2024-03-07T07:06:03;19.88;;;9.40;;
86137;SDS011;76796;49.056;15.810;2024-03-07T07:08:39;18.08;;;9.65;;
86137;SDS011;76796;49.056;15.810;2024-03-07T07:11:05;18.10;;;10.05;;
86137;SDS011;76796;49.056;15.810;2024-03-07T07:13:38;20.40;;;10.07;;
86137;SDS011;76796;49.056;15.810;2024-03-07T07:16:04;17.67;;;9.15;;
86137;SDS011;76796;49.056;15.810;2024-03-07T07:18:29;19.88;;;9.57;;
86137;SDS011;76796;49.056;15.810;2024-03-07T07:20:55;20.45;;;10.52;;
86137;SDS011;76796;49.056;15.810;2024-03-07T07:23:21;18.23;;;8.88;;
86137;SDS011;76796;49.056;15.810;2024-03-07T07:25:55;19.30;;;10.23;;
86137;SDS011;76796;49.056;15.810;2024-03-07T07:28:21;20.83;;;10.45;;
86137;SDS011;76796;49.056;15.810;2024-03-07T07:30:46;19.70;;;9.95;;
86137;SDS011;76796;49.056;15.810;2024-03-07T07:33:12;21.33;;;10.13;;
86137;SDS011;76796;49.056;15.810;2024-03-07T07:35:39;19.02;;;9.50;;
86137;SDS011;76796;49.056;15.810;2024-03-07T07:38:05;17.83;;;9.55;;
86137;SDS011;76796;49.056;15.810;2024-03-07T07:40:32;17.15;;;9.40;;
86137;SDS011;76796;49.056;15.810;2024-03-07T07:43:05;17.13;;;9.40;;
86137;SDS011;76796;49.056;15.810;2024-03-07T07:45:31;18.08;;;9.48;;
86137;SDS011;76796;49.056;15.810;2024-03-07T07:47:57;16.83;;;8.68;;
86137;SDS011;76796;49.056;15.810;2024-03-07T07:50:24;15.40;;;8.60;;
86137;SDS011;76796;49.056;15.810;2024-03-07T07:52:50;15.90;;;8.88;;
86137;SDS011;76796;49.056;15.810;2024-03-07T07:57:45;15.13;;;8.48;;
86137;SDS011;76796;49.056;15.810;2024-03-07T08:00:19;17.88;;;7.85;;
86137;SDS011;76796;49.056;15.810;2024-03-07T08:02:52;21.40;;;9.48;;
86137;SDS011;76796;49.056;15.810;2024-03-07T08:05:22;17.88;;;8.75;;
86137;SDS011;76796;49.056;15.810;2024-03-07T08:07:49;16.25;;;8.80;;
86137;SDS011;76796;49.056;15.810;2024-03-07T08:10:29;15.02;;;7.60;;
86137;SDS011;76796;49.056;15.810;2024-03-07T08:12:56;16.98;;;9.02;;
86137;SDS011;76796;49.056;15.810;2024-03-07T08:15:30;17.65;;;8.48;;
86137;SDS011;76796;49.056;15.810;2024-03-07T08:17:56;17.65;;;8.38;;
86137;SDS011;76796;49.056;15.810;2024-03-07T08:20:23;16.55;;;8.65;;
86137;SDS011;76796;49.056;15.810;2024-03-07T08:22:50;17.02;;;8.25;;
86137;SDS011;76796;49.056;15.810;2024-03-07T08:25:18;16.05;;;9.52;;
86137;SDS011;76796;49.056;15.810;2024-03-07T08:27:46;17.17;;;8.15;;
86137;SDS011;76796;49.056;15.810;2024-03-07T08:30:13;16.48;;;8.10;;
86137;SDS011;76796;49.056;15.810;2024-03-07T08:32:48;14.07;;;8.07;;
86137;SDS011;76796;49.056;15.810;2024-03-07T08:35:15;17.30;;;9.20;;
86137;SDS011;76796;49.056;15.810;2024-03-07T08:37:42;15.90;;;8.07;;
86137;SDS011;76796;49.056;15.810;2024-03-07T08:40:14;15.77;;;8.68;;
86137;SDS011;76796;49.056;15.810;2024-03-07T08:42:46;18.50;;;9.00;;
86137;SDS011;76796;49.056;15.810;2024-03-07T08:45:15;19.63;;;8.43;;
86137;SDS011;76796;49.056;15.810;2024-03-07T08:47:44;17.65;;;8.27;;
86137;SDS011;76796;49.056;15.810;2024-03-07T08:50:21;17.60;;;9.57;;
86137;SDS011;76796;49.056;15.810;2024-03-07T08:52:48;17.67;;;8.50;;
86137;SDS011;76796;49.056;15.810;2024-03-07T08:55:15;16.08;;;8.73;;
86137;SDS011;76796;49.056;15.810;2024-03-07T08:57:42;18.80;;;8.60;;
86137;SDS011;76796;49.056;15.810;2024-03-07T09:00:12;14.63;;;7.95;;
86137;SDS011;76796;49.056;15.810;2024-03-07T09:02:48;17.65;;;9.80;;
86137;SDS011;76796;49.056;15.810;2024-03-07T09:05:20;16.90;;;9.35;;
86137;SDS011;76796;49.056;15.810;2024-03-07T09:07:56;14.98;;;8.50;;
86137;SDS011;76796;49.056;15.810;2024-03-07T09:10:21;14.63;;;8.50;;
86137;SDS011;76796;49.056;15.810;2024-03-07T09:12:58;15.48;;;8.45;;
86137;SDS011;76796;49.056;15.810;2024-03-07T09:15:23;17.13;;;8.45;;
86137;SDS011;76796;49.056;15.810;2024-03-07T09:17:49;15.48;;;8.27;;
86137;SDS011;76796;49.056;15.810;2024-03-07T09:20:15;14.57;;;7.78;;
86137;SDS011;76796;49.056;15.810;2024-03-07T09:22:44;14.95;;;8.43;;
86137;SDS011;76796;49.056;15.810;2024-03-07T09:25:17;16.25;;;8.20;;
86137;SDS011;76796;49.056;15.810;2024-03-07T09:27:44;14.95;;;8.32;;
86137;SDS011;76796;49.056;15.810;2024-03-07T09:30:10;14.45;;;8.43;;
86137;SDS011;76796;49.056;15.810;2024-03-07T09:32:44;17.27;;;8.98;;
86137;SDS011;76796;49.056;15.810;2024-03-07T09:35:10;14.63;;;8.70;;
86137;SDS011;76796;49.056;15.810;2024-03-07T09:37:42;15.93;;;8.45;;
86137;SDS011;76796;49.056;15.810;2024-03-07T09:40:09;16.63;;;9.20;;
86137;SDS011;76796;49.056;15.810;2024-03-07T09:42:46;18.50;;;8.93;;
86137;SDS011;76796;49.056;15.810;2024-03-07T09:45:17;18.58;;;10.02;;
86137;SDS011;76796;49.056;15.810;2024-03-07T09:47:45;18.00;;;8.98;;
86137;SDS011;76796;49.056;15.810;2024-03-07T09:50:17;16.98;;;9.52;;
86137;SDS011;76796;49.056;15.810;2024-03-07T09:52:50;16.63;;;10.18;;
86137;SDS011;76796;49.056;15.810;2024-03-07T09:57:58;17.23;;;8.05;;
86137;SDS011;76796;49.056;15.810;2024-03-07T10:00:26;16.75;;;8.30;;
86137;SDS011;76796;49.056;15.810;2024-03-07T10:02:56;15.80;;;8.98;;
86137;SDS011;76796;49.056;15.810;2024-03-07T10:05:31;15.98;;;8.68;;
86137;SDS011;76796;49.056;15.810;2024-03-07T10:07:58;13.75;;;7.78;;
86137;SDS011;76796;49.056;15.810;2024-03-07T10:10:32;13.82;;;7.25;;
86137;SDS011;76796;49.056;15.810;2024-03-07T10:13:18;12.98;;;6.53;;
86137;SDS011;76796;49.056;15.810;2024-03-07T10:15:43;14.45;;;6.88;;
86137;SDS011;76796;49.056;15.810;2024-03-07T10:18:09;13.05;;;7.82;;
86137;SDS011;76796;49.056;15.810;2024-03-07T10:20:35;12.60;;;7.88;;
86137;SDS011;76796;49.056;15.810;2024-03-07T10:23:02;12.23;;;7.30;;
86137;SDS011;76796;49.056;15.810;2024-03-07T10:25:28;13.13;;;7.38;;
86137;SDS011;76796;49.056;15.810;2024-03-07T10:27:54;14.02;;;7.32;;
86137;SDS011;76796;49.056;15.810;2024-03-07T10:30:27;15.63;;;7.50;;
86137;SDS011;76796;49.056;15.810;2024-03-07T10:32:54;14.35;;;7.75;;
86137;SDS011;76796;49.056;15.810;2024-03-07T10:35:22;12.82;;;8.52;;
86137;SDS011;76796;49.056;15.810;2024-03-07T10:37:54;12.82;;;7.65;;
86137;SDS011;76796;49.056;15.810;2024-03-07T10:40:21;16.17;;;7.63;;
86137;SDS011;76796;49.056;15.810;2024-03-07T10:42:48;12.45;;;7.50;;
86137;SDS011;76796;49.056;15.810;2024-03-07T10:45:20;14.65;;;8.32;;
86137;SDS011;76796;49.056;15.810;2024-03-07T10:47:53;12.65;;;6.78;;
86137;SDS011;76796;49.056;15.810;2024-03-07T10:50:27;13.30;;;7.82;;
86137;SDS011;76796;49.056;15.810;2024-03-07T10:56:07;13.38;;;8.40;;
86137;SDS011;76796;49.056;15.810;2024-03-07T10:58:57;12.20;;;7.45;;
86137;SDS011;76796;49.056;15.810;2024-03-07T11:01:31;11.82;;;7.38;;
86137;SDS011;76796;49.056;15.810;2024-03-07T11:04:05;15.20;;;7.90;;
86137;SDS011;76796;49.056;15.810;2024-03-07T11:06:32;14.15;;;7.22;;
86137;SDS011;76796;49.056;15.810;2024-03-07T11:09:03;14.75;;;8.05;;
86137;SDS011;76796;49.056;15.810;2024-03-07T11:11:37;13.68;;;7.03;;
86137;SDS011;76796;49.056;15.810;2024-03-07T11:14:10;13.45;;;7.53;;
86137;SDS011;76796;49.056;15.810;2024-03-07T11:16:40;12.70;;;6.95;;
86137;SDS011;76796;49.056;15.810;2024-03-07T11:19:26;15.38;;;8.05;;
86137;SDS011;76796;49.056;15.810;2024-03-07T11:21:56;13.23;;;7.55;;
86137;SDS011;76796;49.056;15.810;2024-03-07T11:24:22;13.70;;;7.43;;
86137;SDS011;76796;49.056;15.810;2024-03-07T11:27:04;15.27;;;8.10;;
86137;SDS011;76796;49.056;15.810;2024-03-07T11:32:11;15.57;;;7.20;;
86137;SDS011;76796;49.056;15.810;2024-03-07T11:34:45;14.23;;;8.68;;
86137;SDS011;76796;49.056;15.810;2024-03-07T11:40:12;49.95;;;26.35;;
86137;SDS011;76796;49.056;15.810;2024-03-07T11:42:47;68.43;;;36.08;;
86137;SDS011;76796;49.056;15.810;2024-03-07T11:45:20;48.05;;;27.95;;
86137;SDS011;76796;49.056;15.810;2024-03-07T11:47:56;48.63;;;28.02;;
86137;SDS011;76796;49.056;15.810;2024-03-07T11:50:38;46.10;;;26.38;;
86137;SDS011;76796;49.056;15.810;2024-03-07T11:53:06;30.00;;;19.20;;
86137;SDS011;76796;49.056;15.810;2024-03-07T11:55:33;29.42;;;20.27;;
86137;SDS011;76796;49.056;15.810;2024-03-07T11:58:22;21.60;;;13.98;;
86137;SDS011;76796;49.056;15.810;2024-03-07T12:00:48;19.13;;;10.23;;
86137;SDS011;76796;49.056;15.810;2024-03-07T12:05:50;15.07;;;8.55;;
86137;SDS011;76796;49.056;15.810;2024-03-07T12:08:17;16.45;;;9.13;;
86137;SDS011;76796;49.056;15.810;2024-03-07T12:10:54;15.23;;;8.93;;
86137;SDS011;76796;49.056;15.810;2024-03-07T12:13:22;15.50;;;7.80;;
86137;SDS011;76796;49.056;15.810;2024-03-07T12:15:50;13.15;;;8.32;;
86137;SDS011;76796;49.056;15.810;2024-03-07T12:18:17;11.52;;;7.53;;
86137;SDS011;76796;49.056;15.810;2024-03-07T12:20:44;13.77;;;7.65;;
86137;SDS011;76796;49.056;15.810;2024-03-07T12:23:25;16.45;;;8.90;;
86137;SDS011;76796;49.056;15.810;2024-03-07T12:26:00;14.10;;;8.40;;
86137;SDS011;76796;49.056;15.810;2024-03-07T12:28:37;14.65;;;8.68;;
86137;SDS011;76796;49.056;15.810;2024-03-07T12:31:03;15.68;;;8.30;;
86137;SDS011;76796;49.056;15.810;2024-03-07T12:33:30;17.88;;;10.02;;
86137;SDS011;76796;49.056;15.810;2024-03-07T12:36:00;19.77;;;12.07;;
86137;SDS011;76796;49.056;15.810;2024-03-07T12:38:43;16.17;;;9.50;;
86137;SDS011;76796;49.056;15.810;2024-03-07T12:41:09;12.07;;;8.27;;
86137;SDS011;76796;49.056;15.810;2024-03-07T12:43:42;15.15;;;9.68;;
86137;SDS011;76796;49.056;15.810;2024-03-07T12:46:11;14.93;;;8.90;;
86137;SDS011;76796;49.056;15.810;2024-03-07T12:48:38;17.42;;;8.75;;
86137;SDS011;76796;49.056;15.810;2024-03-07T12:51:05;13.73;;;9.07;;
86137;SDS011;76796;49.056;15.810;2024-03-07T12:53:31;15.07;;;8.95;;
86137;SDS011;76796;49.056;15.810;2024-03-07T12:56:03;15.43;;;8.23;;
86137;SDS011;76796;49.056;15.810;2024-03-07T12:58:29;14.77;;;8.35;;
86137;SDS011;76796;49.056;15.810;2024-03-07T13:00:55;13.25;;;8.38;;
86137;SDS011;76796;49.056;15.810;2024-03-07T13:03:21;13.93;;;9.40;;
86137;SDS011;76796;49.056;15.810;2024-03-07T13:05:48;14.13;;;9.27;;
86137;SDS011;76796;49.056;15.810;2024-03-07T13:08:14;14.98;;;8.85;;
86137;SDS011;76796;49.056;15.810;2024-03-07T13:10:43;14.88;;;8.93;;
86137;SDS011;76796;49.056;15.810;2024-03-07T13:13:16;12.55;;;8.45;;
86137;SDS011;76796;49.056;15.810;2024-03-07T13:15:42;17.88;;;10.30;;
86137;SDS011;76796;49.056;15.810;2024-03-07T13:18:12;11.93;;;7.43;;
86137;SDS011;76796;49.056;15.810;2024-03-07T13:20:38;14.07;;;7.97;;
86137;SDS011;76796;49.056;15.810;2024-03-07T13:23:11;15.10;;;8.45;;
86137;SDS011;76796;49.056;15.810;2024-03-07T13:25:37;13.45;;;9.05;;
86137;SDS011;76796;49.056;15.810;2024-03-07T13:28:10;14.07;;;9.10;;
86137;SDS011;76796;49.056;15.810;2024-03-07T13:33:13;23.65;;;8.70;;
86137;SDS011;76796;49.056;15.810;2024-03-07T13:35:39;17.15;;;9.07;;
86137;SDS011;76796;49.056;15.810;2024-03-07T13:38:06;14.60;;;8.75;;
86137;SDS011;76796;49.056;15.810;2024-03-07T13:40:33;14.45;;;8.85;;
86137;SDS011;76796;49.056;15.810;2024-03-07T13:43:06;27.88;;;15.70;;
86137;SDS011;76796;49.056;15.810;2024-03-07T13:45:33;13.57;;;8.45;;
86137;SDS011;76796;49.056;15.810;2024-03-07T13:48:14;13.00;;;7.60;;
86137;SDS011;76796;49.056;15.810;2024-03-07T13:50:42;12.63;;;8.13;;
86137;SDS011;76796;49.056;15.810;2024-03-07T13:53:12;14.18;;;8.77;;
86137;SDS011;76796;49.056;15.810;2024-03-07T14:32:37;20.70;;;12.27;;
86137;SDS011;76796;49.056;15.810;2024-03-07T14:35:23;18.35;;;11.82;;
86137;SDS011;76796;49.056;15.810;2024-03-07T14:41:01;19.48;;;11.00;;
86137;SDS011;76796;49.056;15.810;2024-03-07T14:43:28;24.02;;;14.25;;
86137;SDS011;76796;49.056;15.810;2024-03-07T14:45:54;19.15;;;11.48;;
86137;SDS011;76796;49.056;15.810;2024-03-07T14:48:21;16.15;;;10.05;;
86137;SDS011;76796;49.056;15.810;2024-03-07T14:50:47;14.82;;;9.82;;
86137;SDS011;76796;49.056;15.810;2024-03-07T14:53:19;16.38;;;10.77;;
86137;SDS011;76796;49.056;15.810;2024-03-07T14:55:45;19.52;;;11.50;;
86137;SDS011;76796;49.056;15.810;2024-03-07T14:58:11;23.15;;;13.18;;
86137;SDS011;76796;49.056;15.810;2024-03-07T15:00:38;23.55;;;14.77;;
86137;SDS011;76796;49.056;15.810;2024-03-07T15:03:08;30.83;;;18.45;;
86137;SDS011;76796;49.056;15.810;2024-03-07T15:05:35;86.68;;;37.55;;
86137;SDS011;76796;49.056;15.810;2024-03-07T15:08:01;99.47;;;40.58;;
86137;SDS011;76796;49.056;15.810;2024-03-07T15:10:43;84.78;;;35.25;;
86137;SDS011;76796;49.056;15.810;2024-03-07T15:13:19;59.70;;;25.00;;
86137;SDS011;76796;49.056;15.810;2024-03-07T15:15:45;292.25;;;74.70;;
86137;SDS011;76796;49.056;15.810;2024-03-07T15:18:11;47.30;;;21.45;;
86137;SDS011;76796;49.056;15.810;2024-03-07T15:20:37;48.38;;;22.67;;
86137;SDS011;76796;49.056;15.810;2024-03-07T15:23:03;51.65;;;24.30;;